McIntosh, Minnesota
Current Conditions -  °F | °C
As of 2:15 PM on Thursday 30 Oct 2014 (Local Time) from KFSE Reporting Station
Overcast Overcast  
Wind Chill: 24°   Ceiling: 2300
Heat Index: 34°   Visibility: 10mi
Dew Point: 27°   Wind: 16mph
Humidity: 75%   Direction: 340°NNW
Pressure: 30.26"   Gusts: 29mph
Location:  47.64°N, 95.89°W
Report Text: KFSE 301915Z AUTO 34014G25KT 10SM OVC023 01/M03 A3026 RMK AO2
Loading
Personal Weather Stations






























Interactive Weather Map
Tropical Storm Tracking
New forecast layout! Learn more

10-Day Weather Forecast

Advertisements
Track Severe Weather on mobile